Hope, KY (40334)

4:53 AM EST on February 10, 2016 (GMT -0500)
Oak Ridge Estates | | Change Station
CLOSE
Current Station
Personal Weather Station
Location: Stanton, KY
Elevation: 846 ft
Nearby Weather Stations
Active Advisory: Winter Weather Advisory

Elev 846 ft 37.83 °N, 83.86 °W | Updated 12 minutes ago

Snow
Snow
16.7 °F
Feels Like 6 °F
N
7.8
Wind Variable Wind from SSW

Today
High -- | Low -- °F
--% Chance of Precip.
Yesterday
High -- | Low -- °F
Precip. -- in
Pressure 29.96 in
Visibility 2.5 miles
Clouds Scattered Clouds 1100 ft
Mostly Cloudy 2300 ft
Overcast 2800 ft
Windchill 6 °F
Dew Point 14 °F
Humidity 87%
Rainfall 0.00 in
Snow Depth Not available.
7:31 AM 6:08 PM
Waxing Crescent, 4% visible
METAR KIOB 100935Z AUTO 27006KT 2 1/2SM -SN SCT011 BKN023 OVC028 M08/M10 A2996 RMK AO2
Pressure 29.96 in
Visibility 2.5 miles
Clouds Scattered Clouds 1100 ft
Mostly Cloudy 2300 ft
Overcast 2800 ft
Windchill 6 °F
Dew Point 14 °F
Humidity 87%
Rainfall 0.00 in
Snow Depth Not available.
7:31 AM 6:08 PM
Waxing Crescent, 4% visible
METAR KIOB 100935Z AUTO 27006KT 2 1/2SM -SN SCT011 BKN023 OVC028 M08/M10 A2996 RMK AO2

10-Day Weather Forecast

Almanac

Astronomy

Feb. 10, 2016 Rise Set
Actual Time
Civil Twilight
Nautical Twilight
Astronomical Twilight
Moon
Length of Visible Light
Length of Day
Tomorrow will be .
, % of the Moon is Illuminated

Today's Extremes

State Highs State Lows

Community

WunderPhotos

Upload Photos

1,891,826 photos uploaded!

WunderBlog® & News

Nearby

Air Quality

  Air Quality AQ Index Pollutant
Not available.

Snow Depth

Station Depth Elevation

Earthquake Activity

City Distance Mag. Time & Date
Minimum magnitude displayed is 2.5.

Coastal Water Temperatures

Place Temperature

Stations

Nearby Weather Stations

Station Location Temp. Windchill Dew Point Humidity Wind Precip. Elev Updated Type
                   

Watches & Warnings

Winter Weather Advisory
Issued: 9:39 PM EST Feb. 9, 2016 – National Weather Service

... Winter Weather Advisory remains in effect until 10 am EST
Wednesday...

* periods of snow showers will continue through Wednesday
morning... before gradually diminishing.

* Light snow will accumulate through the morning commute with up
to 1 inch of accumulation from tonight into Wednesday morning.

* Roads and walkways will become slippery... snow covered and or
icy... especially those which are untreated as temperatures fall
into the teens. Localized heavy snow showers may also bring
greatly reduced visibility at times.

Precautionary/preparedness actions...

A Winter Weather Advisory for snow means that periods of snow
will cause primarily travel difficulties. Be prepared for snow
covered roads and limited visibilities... and use caution while
driving.